sensor_id;sensor_type;location;lat;lon;timestamp;P1;durP1;ratioP1;P2;durP2;ratioP2
78875;SDS011;68253;52.506;5.486;2023-07-28T00:02:24;13.30;;;3.80;;
78875;SDS011;68253;52.506;5.486;2023-07-28T00:04:50;12.63;;;3.33;;
78875;SDS011;68253;52.506;5.486;2023-07-28T00:07:17;10.50;;;3.10;;
78875;SDS011;68253;52.506;5.486;2023-07-28T00:09:43;11.63;;;3.08;;
78875;SDS011;68253;52.506;5.486;2023-07-28T00:12:09;10.45;;;3.00;;
78875;SDS011;68253;52.506;5.486;2023-07-28T00:14:35;13.50;;;3.13;;
78875;SDS011;68253;52.506;5.486;2023-07-28T00:17:02;13.27;;;3.78;;
78875;SDS011;68253;52.506;5.486;2023-07-28T00:19:28;10.93;;;3.30;;
78875;SDS011;68253;52.506;5.486;2023-07-28T00:21:54;11.45;;;2.88;;
78875;SDS011;68253;52.506;5.486;2023-07-28T00:24:21;10.48;;;2.60;;
78875;SDS011;68253;52.506;5.486;2023-07-28T00:26:47;12.65;;;3.08;;
78875;SDS011;68253;52.506;5.486;2023-07-28T00:29:13;9.75;;;2.83;;
78875;SDS011;68253;52.506;5.486;2023-07-28T00:31:40;10.43;;;2.75;;
78875;SDS011;68253;52.506;5.486;2023-07-28T00:34:07;12.23;;;3.45;;
78875;SDS011;68253;52.506;5.486;2023-07-28T00:36:33;13.27;;;3.50;;
78875;SDS011;68253;52.506;5.486;2023-07-28T00:39:00;11.48;;;3.33;;
78875;SDS011;68253;52.506;5.486;2023-07-28T00:41:26;11.00;;;3.78;;
78875;SDS011;68253;52.506;5.486;2023-07-28T00:43:52;12.63;;;3.60;;
78875;SDS011;68253;52.506;5.486;2023-07-28T00:46:18;11.70;;;3.45;;
78875;SDS011;68253;52.506;5.486;2023-07-28T00:48:44;11.27;;;3.47;;
78875;SDS011;68253;52.506;5.486;2023-07-28T00:51:11;11.00;;;3.42;;
78875;SDS011;68253;52.506;5.486;2023-07-28T00:53:37;8.07;;;2.72;;
78875;SDS011;68253;52.506;5.486;2023-07-28T00:56:05;12.93;;;3.90;;
78875;SDS011;68253;52.506;5.486;2023-07-28T00:58:33;10.85;;;3.30;;
78875;SDS011;68253;52.506;5.486;2023-07-28T01:00:59;10.60;;;2.72;;
78875;SDS011;68253;52.506;5.486;2023-07-28T01:03:25;9.93;;;2.65;;
78875;SDS011;68253;52.506;5.486;2023-07-28T01:08:49;9.57;;;3.20;;
78875;SDS011;68253;52.506;5.486;2023-07-28T01:11:26;9.18;;;3.22;;
78875;SDS011;68253;52.506;5.486;2023-07-28T01:13:55;7.82;;;2.55;;
78875;SDS011;68253;52.506;5.486;2023-07-28T01:16:21;9.95;;;3.13;;
78875;SDS011;68253;52.506;5.486;2023-07-28T01:18:47;10.73;;;3.53;;
78875;SDS011;68253;52.506;5.486;2023-07-28T01:21:17;11.38;;;3.30;;
78875;SDS011;68253;52.506;5.486;2023-07-28T01:23:59;9.18;;;2.60;;
78875;SDS011;68253;52.506;5.486;2023-07-28T01:26:35;10.68;;;3.00;;
78875;SDS011;68253;52.506;5.486;2023-07-28T01:29:03;11.38;;;3.20;;
78875;SDS011;68253;52.506;5.486;2023-07-28T01:31:30;11.07;;;2.83;;
78875;SDS011;68253;52.506;5.486;2023-07-28T01:33:56;12.15;;;3.60;;
78875;SDS011;68253;52.506;5.486;2023-07-28T01:36:22;11.32;;;3.08;;
78875;SDS011;68253;52.506;5.486;2023-07-28T01:38:49;8.82;;;2.45;;
78875;SDS011;68253;52.506;5.486;2023-07-28T01:41:15;9.93;;;2.50;;
78875;SDS011;68253;52.506;5.486;2023-07-28T01:43:41;13.63;;;3.70;;
78875;SDS011;68253;52.506;5.486;2023-07-28T01:46:08;8.75;;;2.90;;
78875;SDS011;68253;52.506;5.486;2023-07-28T01:48:35;13.07;;;3.42;;
78875;SDS011;68253;52.506;5.486;2023-07-28T01:51:01;10.77;;;3.25;;
78875;SDS011;68253;52.506;5.486;2023-07-28T01:53:27;12.95;;;3.30;;
78875;SDS011;68253;52.506;5.486;2023-07-28T01:55:53;10.88;;;3.08;;
78875;SDS011;68253;52.506;5.486;2023-07-28T01:58:19;10.05;;;3.22;;
78875;SDS011;68253;52.506;5.486;2023-07-28T02:00:45;13.00;;;3.60;;
78875;SDS011;68253;52.506;5.486;2023-07-28T02:03:12;11.80;;;3.50;;
78875;SDS011;68253;52.506;5.486;2023-07-28T02:05:38;8.90;;;2.83;;
78875;SDS011;68253;52.506;5.486;2023-07-28T02:08:04;10.38;;;3.35;;
78875;SDS011;68253;52.506;5.486;2023-07-28T02:10:30;11.00;;;3.60;;
78875;SDS011;68253;52.506;5.486;2023-07-28T02:12:56;12.10;;;3.38;;
78875;SDS011;68253;52.506;5.486;2023-07-28T02:15:23;13.02;;;4.10;;
78875;SDS011;68253;52.506;5.486;2023-07-28T02:17:49;10.55;;;3.80;;
78875;SDS011;68253;52.506;5.486;2023-07-28T02:20:15;12.02;;;3.90;;
78875;SDS011;68253;52.506;5.486;2023-07-28T02:22:42;10.55;;;3.47;;
78875;SDS011;68253;52.506;5.486;2023-07-28T02:25:09;11.75;;;3.28;;
78875;SDS011;68253;52.506;5.486;2023-07-28T02:27:36;10.90;;;3.88;;
78875;SDS011;68253;52.506;5.486;2023-07-28T02:30:03;12.90;;;3.70;;
78875;SDS011;68253;52.506;5.486;2023-07-28T02:32:31;10.65;;;3.40;;
78875;SDS011;68253;52.506;5.486;2023-07-28T02:34:57;10.57;;;2.47;;
78875;SDS011;68253;52.506;5.486;2023-07-28T02:37:24;14.10;;;4.18;;
78875;SDS011;68253;52.506;5.486;2023-07-28T02:39:50;13.55;;;3.72;;
78875;SDS011;68253;52.506;5.486;2023-07-28T02:42:17;12.93;;;3.58;;
78875;SDS011;68253;52.506;5.486;2023-07-28T02:44:43;13.27;;;3.63;;
78875;SDS011;68253;52.506;5.486;2023-07-28T02:47:09;10.57;;;3.63;;
78875;SDS011;68253;52.506;5.486;2023-07-28T02:49:35;11.38;;;2.63;;
78875;SDS011;68253;52.506;5.486;2023-07-28T02:52:02;10.50;;;3.58;;
78875;SDS011;68253;52.506;5.486;2023-07-28T02:54:28;15.15;;;4.03;;
78875;SDS011;68253;52.506;5.486;2023-07-28T02:56:55;11.52;;;2.85;;
78875;SDS011;68253;52.506;5.486;2023-07-28T02:59:21;10.25;;;3.33;;
78875;SDS011;68253;52.506;5.486;2023-07-28T03:01:48;16.10;;;4.22;;
78875;SDS011;68253;52.506;5.486;2023-07-28T03:04:18;11.45;;;3.75;;
78875;SDS011;68253;52.506;5.486;2023-07-28T03:07:14;9.60;;;3.33;;
78875;SDS011;68253;52.506;5.486;2023-07-28T03:09:42;12.30;;;3.90;;
78875;SDS011;68253;52.506;5.486;2023-07-28T03:12:08;9.93;;;3.15;;
78875;SDS011;68253;52.506;5.486;2023-07-28T03:14:37;9.40;;;2.80;;
78875;SDS011;68253;52.506;5.486;2023-07-28T03:17:03;12.15;;;3.75;;
78875;SDS011;68253;52.506;5.486;2023-07-28T03:19:29;12.25;;;3.13;;
78875;SDS011;68253;52.506;5.486;2023-07-28T03:21:56;9.90;;;3.00;;
78875;SDS011;68253;52.506;5.486;2023-07-28T03:24:22;12.15;;;3.70;;
78875;SDS011;68253;52.506;5.486;2023-07-28T03:26:48;11.13;;;3.50;;
78875;SDS011;68253;52.506;5.486;2023-07-28T03:29:14;11.70;;;3.60;;
78875;SDS011;68253;52.506;5.486;2023-07-28T03:31:40;10.32;;;3.45;;
78875;SDS011;68253;52.506;5.486;2023-07-28T03:34:07;10.57;;;3.67;;
78875;SDS011;68253;52.506;5.486;2023-07-28T03:36:33;13.32;;;4.40;;
78875;SDS011;68253;52.506;5.486;2023-07-28T03:39:00;11.90;;;3.28;;
78875;SDS011;68253;52.506;5.486;2023-07-28T03:41:27;9.93;;;3.35;;
78875;SDS011;68253;52.506;5.486;2023-07-28T03:43:54;11.40;;;4.10;;
78875;SDS011;68253;52.506;5.486;2023-07-28T03:46:20;9.93;;;3.20;;
78875;SDS011;68253;52.506;5.486;2023-07-28T03:48:46;12.05;;;4.45;;
78875;SDS011;68253;52.506;5.486;2023-07-28T03:51:12;15.93;;;4.97;;
78875;SDS011;68253;52.506;5.486;2023-07-28T03:53:39;11.63;;;3.53;;
78875;SDS011;68253;52.506;5.486;2023-07-28T03:56:05;12.32;;;3.97;;
78875;SDS011;68253;52.506;5.486;2023-07-28T03:58:31;10.77;;;3.80;;
78875;SDS011;68253;52.506;5.486;2023-07-28T04:00:57;13.30;;;4.10;;
78875;SDS011;68253;52.506;5.486;2023-07-28T04:03:23;12.98;;;4.30;;
78875;SDS011;68253;52.506;5.486;2023-07-28T04:05:49;14.70;;;4.80;;
78875;SDS011;68253;52.506;5.486;2023-07-28T04:08:15;12.65;;;4.35;;
78875;SDS011;68253;52.506;5.486;2023-07-28T04:10:42;12.40;;;3.75;;
78875;SDS011;68253;52.506;5.486;2023-07-28T04:13:08;19.73;;;5.35;;
78875;SDS011;68253;52.506;5.486;2023-07-28T04:15:34;13.32;;;5.10;;
78875;SDS011;68253;52.506;5.486;2023-07-28T04:18:00;12.88;;;4.82;;
78875;SDS011;68253;52.506;5.486;2023-07-28T04:20:27;15.07;;;5.65;;
78875;SDS011;68253;52.506;5.486;2023-07-28T04:22:53;13.05;;;4.20;;
78875;SDS011;68253;52.506;5.486;2023-07-28T04:25:19;12.60;;;4.45;;
78875;SDS011;68253;52.506;5.486;2023-07-28T04:27:47;12.93;;;4.22;;
78875;SDS011;68253;52.506;5.486;2023-07-28T04:30:13;16.42;;;5.78;;
78875;SDS011;68253;52.506;5.486;2023-07-28T04:32:39;12.75;;;4.22;;
78875;SDS011;68253;52.506;5.486;2023-07-28T04:35:12;13.70;;;5.05;;
78875;SDS011;68253;52.506;5.486;2023-07-28T04:37:51;14.88;;;5.57;;
78875;SDS011;68253;52.506;5.486;2023-07-28T04:40:40;18.30;;;5.93;;
78875;SDS011;68253;52.506;5.486;2023-07-28T04:43:08;17.35;;;5.55;;
78875;SDS011;68253;52.506;5.486;2023-07-28T04:45:34;13.13;;;4.35;;
78875;SDS011;68253;52.506;5.486;2023-07-28T04:48:05;14.20;;;4.78;;
78875;SDS011;68253;52.506;5.486;2023-07-28T04:50:31;13.45;;;5.53;;
78875;SDS011;68253;52.506;5.486;2023-07-28T04:53:26;16.55;;;5.32;;
78875;SDS011;68253;52.506;5.486;2023-07-28T04:56:06;13.80;;;4.50;;
78875;SDS011;68253;52.506;5.486;2023-07-28T04:58:33;12.82;;;4.35;;
78875;SDS011;68253;52.506;5.486;2023-07-28T05:01:01;12.60;;;4.63;;
78875;SDS011;68253;52.506;5.486;2023-07-28T05:03:28;15.80;;;4.60;;
78875;SDS011;68253;52.506;5.486;2023-07-28T05:06:04;14.02;;;4.88;;
78875;SDS011;68253;52.506;5.486;2023-07-28T05:08:31;15.10;;;5.18;;
78875;SDS011;68253;52.506;5.486;2023-07-28T05:10:57;13.20;;;3.67;;
78875;SDS011;68253;52.506;5.486;2023-07-28T05:13:24;14.15;;;5.10;;
78875;SDS011;68253;52.506;5.486;2023-07-28T05:15:54;17.75;;;5.13;;
78875;SDS011;68253;52.506;5.486;2023-07-28T05:18:40;11.50;;;5.10;;
78875;SDS011;68253;52.506;5.486;2023-07-28T05:21:39;15.80;;;5.15;;
78875;SDS011;68253;52.506;5.486;2023-07-28T05:24:07;13.50;;;4.75;;
78875;SDS011;68253;52.506;5.486;2023-07-28T05:26:35;14.25;;;4.57;;
78875;SDS011;68253;52.506;5.486;2023-07-28T05:29:01;13.60;;;4.20;;
78875;SDS011;68253;52.506;5.486;2023-07-28T05:31:27;13.68;;;4.85;;
78875;SDS011;68253;52.506;5.486;2023-07-28T05:33:54;10.57;;;3.85;;
78875;SDS011;68253;52.506;5.486;2023-07-28T05:36:20;11.80;;;3.92;;
78875;SDS011;68253;52.506;5.486;2023-07-28T05:38:48;12.82;;;3.97;;
78875;SDS011;68253;52.506;5.486;2023-07-28T05:41:15;15.43;;;4.43;;
78875;SDS011;68253;52.506;5.486;2023-07-28T05:43:43;13.13;;;3.75;;
78875;SDS011;68253;52.506;5.486;2023-07-28T05:46:09;13.05;;;4.28;;
78875;SDS011;68253;52.506;5.486;2023-07-28T05:48:36;13.10;;;4.43;;
78875;SDS011;68253;52.506;5.486;2023-07-28T05:51:02;14.20;;;4.30;;
78875;SDS011;68253;52.506;5.486;2023-07-28T05:53:29;13.95;;;4.78;;
78875;SDS011;68253;52.506;5.486;2023-07-28T05:56:01;12.95;;;4.07;;
78875;SDS011;68253;52.506;5.486;2023-07-28T05:58:29;13.13;;;3.75;;
78875;SDS011;68253;52.506;5.486;2023-07-28T06:00:55;14.95;;;4.40;;
78875;SDS011;68253;52.506;5.486;2023-07-28T06:03:57;12.20;;;4.10;;
78875;SDS011;68253;52.506;5.486;2023-07-28T06:06:26;13.00;;;3.90;;
78875;SDS011;68253;52.506;5.486;2023-07-28T06:08:53;12.82;;;3.85;;
78875;SDS011;68253;52.506;5.486;2023-07-28T06:11:19;11.98;;;3.90;;
78875;SDS011;68253;52.506;5.486;2023-07-28T06:13:46;16.23;;;4.80;;
78875;SDS011;68253;52.506;5.486;2023-07-28T06:16:14;12.25;;;3.22;;
78875;SDS011;68253;52.506;5.486;2023-07-28T06:18:40;13.07;;;3.88;;
78875;SDS011;68253;52.506;5.486;2023-07-28T06:21:18;10.73;;;3.47;;
78875;SDS011;68253;52.506;5.486;2023-07-28T06:23:45;11.45;;;4.25;;
78875;SDS011;68253;52.506;5.486;2023-07-28T06:26:11;12.48;;;4.03;;
78875;SDS011;68253;52.506;5.486;2023-07-28T06:28:39;10.88;;;3.13;;
78875;SDS011;68253;52.506;5.486;2023-07-28T06:31:05;10.13;;;2.80;;
78875;SDS011;68253;52.506;5.486;2023-07-28T06:33:32;16.90;;;5.53;;
78875;SDS011;68253;52.506;5.486;2023-07-28T06:35:58;12.50;;;3.80;;
78875;SDS011;68253;52.506;5.486;2023-07-28T06:38:24;12.25;;;3.85;;
78875;SDS011;68253;52.506;5.486;2023-07-28T06:40:50;11.15;;;3.75;;
78875;SDS011;68253;52.506;5.486;2023-07-28T06:43:17;15.48;;;5.30;;
78875;SDS011;68253;52.506;5.486;2023-07-28T06:45:46;17.10;;;4.07;;
78875;SDS011;68253;52.506;5.486;2023-07-28T06:48:16;10.23;;;3.20;;
78875;SDS011;68253;52.506;5.486;2023-07-28T06:50:42;11.68;;;3.53;;
78875;SDS011;68253;52.506;5.486;2023-07-28T06:53:09;10.02;;;3.22;;
78875;SDS011;68253;52.506;5.486;2023-07-28T06:55:35;11.38;;;3.90;;
78875;SDS011;68253;52.506;5.486;2023-07-28T06:58:05;10.85;;;3.65;;
78875;SDS011;68253;52.506;5.486;2023-07-28T07:00:32;12.90;;;4.50;;
78875;SDS011;68253;52.506;5.486;2023-07-28T07:02:59;13.65;;;4.40;;
78875;SDS011;68253;52.506;5.486;2023-07-28T07:05:26;11.63;;;4.50;;
78875;SDS011;68253;52.506;5.486;2023-07-28T07:07:52;14.32;;;4.07;;
78875;SDS011;68253;52.506;5.486;2023-07-28T07:10:20;12.85;;;3.95;;
78875;SDS011;68253;52.506;5.486;2023-07-28T07:12:47;12.52;;;4.05;;
78875;SDS011;68253;52.506;5.486;2023-07-28T07:15:13;15.57;;;4.70;;
78875;SDS011;68253;52.506;5.486;2023-07-28T07:17:39;15.50;;;4.85;;
78875;SDS011;68253;52.506;5.486;2023-07-28T07:20:06;12.27;;;4.00;;
78875;SDS011;68253;52.506;5.486;2023-07-28T07:22:32;11.68;;;4.20;;
78875;SDS011;68253;52.506;5.486;2023-07-28T07:24:58;10.70;;;4.15;;
78875;SDS011;68253;52.506;5.486;2023-07-28T07:27:25;12.30;;;3.42;;
78875;SDS011;68253;52.506;5.486;2023-07-28T07:29:51;12.10;;;3.95;;
78875;SDS011;68253;52.506;5.486;2023-07-28T07:32:18;14.57;;;4.82;;
78875;SDS011;68253;52.506;5.486;2023-07-28T07:34:44;14.38;;;4.88;;
78875;SDS011;68253;52.506;5.486;2023-07-28T07:37:10;11.65;;;3.92;;
78875;SDS011;68253;52.506;5.486;2023-07-28T07:39:36;11.93;;;4.47;;
78875;SDS011;68253;52.506;5.486;2023-07-28T07:42:02;10.93;;;4.13;;
78875;SDS011;68253;52.506;5.486;2023-07-28T07:44:29;15.25;;;4.30;;
78875;SDS011;68253;52.506;5.486;2023-07-28T07:46:55;12.85;;;3.55;;
78875;SDS011;68253;52.506;5.486;2023-07-28T07:49:22;13.85;;;4.80;;
78875;SDS011;68253;52.506;5.486;2023-07-28T07:51:49;13.32;;;4.28;;
78875;SDS011;68253;52.506;5.486;2023-07-28T07:54:15;12.50;;;4.65;;
78875;SDS011;68253;52.506;5.486;2023-07-28T07:56:44;12.48;;;4.90;;
78875;SDS011;68253;52.506;5.486;2023-07-28T07:59:12;10.52;;;3.70;;
78875;SDS011;68253;52.506;5.486;2023-07-28T08:01:39;13.27;;;4.75;;
78875;SDS011;68253;52.506;5.486;2023-07-28T08:04:05;12.38;;;4.25;;
78875;SDS011;68253;52.506;5.486;2023-07-28T08:06:31;16.13;;;5.55;;
78875;SDS011;68253;52.506;5.486;2023-07-28T08:08:58;12.85;;;4.40;;
78875;SDS011;68253;52.506;5.486;2023-07-28T08:11:25;12.50;;;4.82;;
78875;SDS011;68253;52.506;5.486;2023-07-28T08:13:51;12.88;;;4.72;;
78875;SDS011;68253;52.506;5.486;2023-07-28T08:16:17;13.02;;;4.90;;
78875;SDS011;68253;52.506;5.486;2023-07-28T08:18:43;11.55;;;4.22;;
78875;SDS011;68253;52.506;5.486;2023-07-28T08:21:09;10.30;;;4.38;;
78875;SDS011;68253;52.506;5.486;2023-07-28T08:23:35;12.10;;;4.40;;
78875;SDS011;68253;52.506;5.486;2023-07-28T08:26:02;11.35;;;4.05;;
78875;SDS011;68253;52.506;5.486;2023-07-28T08:28:29;10.90;;;4.03;;
78875;SDS011;68253;52.506;5.486;2023-07-28T08:30:55;9.80;;;3.67;;
78875;SDS011;68253;52.506;5.486;2023-07-28T08:33:22;10.38;;;3.70;;
78875;SDS011;68253;52.506;5.486;2023-07-28T08:35:48;12.63;;;4.32;;
78875;SDS011;68253;52.506;5.486;2023-07-28T08:38:14;11.30;;;4.15;;
78875;SDS011;68253;52.506;5.486;2023-07-28T08:40:41;12.75;;;4.10;;
78875;SDS011;68253;52.506;5.486;2023-07-28T08:43:09;12.00;;;4.43;;
78875;SDS011;68253;52.506;5.486;2023-07-28T08:45:36;12.20;;;4.40;;
78875;SDS011;68253;52.506;5.486;2023-07-28T08:48:03;10.55;;;4.35;;
78875;SDS011;68253;52.506;5.486;2023-07-28T08:50:30;12.40;;;4.43;;
78875;SDS011;68253;52.506;5.486;2023-07-28T08:52:57;11.38;;;4.15;;
78875;SDS011;68253;52.506;5.486;2023-07-28T08:55:23;14.02;;;5.35;;
78875;SDS011;68253;52.506;5.486;2023-07-28T08:57:49;15.07;;;4.03;;
78875;SDS011;68253;52.506;5.486;2023-07-28T09:00:15;12.15;;;4.68;;
78875;SDS011;68253;52.506;5.486;2023-07-28T09:02:43;10.32;;;4.45;;
78875;SDS011;68253;52.506;5.486;2023-07-28T09:05:19;11.63;;;4.60;;
78875;SDS011;68253;52.506;5.486;2023-07-28T09:07:47;10.93;;;3.58;;
78875;SDS011;68253;52.506;5.486;2023-07-28T09:10:13;10.55;;;3.88;;
78875;SDS011;68253;52.506;5.486;2023-07-28T09:12:46;11.32;;;4.20;;
78875;SDS011;68253;52.506;5.486;2023-07-28T09:15:16;8.52;;;3.20;;
78875;SDS011;68253;52.506;5.486;2023-07-28T09:17:46;12.70;;;4.32;;
78875;SDS011;68253;52.506;5.486;2023-07-28T09:20:13;12.20;;;3.92;;
78875;SDS011;68253;52.506;5.486;2023-07-28T09:22:42;10.07;;;3.40;;
78875;SDS011;68253;52.506;5.486;2023-07-28T09:25:12;11.45;;;3.70;;
78875;SDS011;68253;52.506;5.486;2023-07-28T09:27:39;11.95;;;3.80;;
78875;SDS011;68253;52.506;5.486;2023-07-28T09:30:06;14.13;;;4.00;;
78875;SDS011;68253;52.506;5.486;2023-07-28T09:32:33;9.30;;;3.40;;
78875;SDS011;68253;52.506;5.486;2023-07-28T09:35:07;13.80;;;4.28;;
78875;SDS011;68253;52.506;5.486;2023-07-28T09:37:36;10.55;;;4.07;;
78875;SDS011;68253;52.506;5.486;2023-07-28T09:40:04;10.20;;;3.85;;
78875;SDS011;68253;52.506;5.486;2023-07-28T09:42:48;9.93;;;3.60;;
78875;SDS011;68253;52.506;5.486;2023-07-28T09:45:16;8.90;;;3.13;;
78875;SDS011;68253;52.506;5.486;2023-07-28T09:47:46;11.20;;;3.45;;
78875;SDS011;68253;52.506;5.486;2023-07-28T09:50:15;10.80;;;3.70;;
78875;SDS011;68253;52.506;5.486;2023-07-28T09:52:45;10.07;;;3.25;;
78875;SDS011;68253;52.506;5.486;2023-07-28T09:55:12;10.70;;;2.90;;
78875;SDS011;68253;52.506;5.486;2023-07-28T09:57:45;8.75;;;2.55;;
78875;SDS011;68253;52.506;5.486;2023-07-28T10:00:15;10.45;;;3.70;;
78875;SDS011;68253;52.506;5.486;2023-07-28T10:02:42;8.88;;;2.67;;
78875;SDS011;68253;52.506;5.486;2023-07-28T10:05:09;10.05;;;3.00;;
78875;SDS011;68253;52.506;5.486;2023-07-28T10:07:40;9.35;;;2.67;;
78875;SDS011;68253;52.506;5.486;2023-07-28T10:10:11;11.55;;;3.60;;
78875;SDS011;68253;52.506;5.486;2023-07-28T10:12:51;10.05;;;3.20;;
78875;SDS011;68253;52.506;5.486;2023-07-28T10:15:21;8.82;;;2.72;;
78875;SDS011;68253;52.506;5.486;2023-07-28T10:17:58;8.25;;;2.88;;
78875;SDS011;68253;52.506;5.486;2023-07-28T10:23:04;10.95;;;3.00;;
78875;SDS011;68253;52.506;5.486;2023-07-28T10:25:34;11.02;;;2.83;;
78875;SDS011;68253;52.506;5.486;2023-07-28T10:28:01;6.60;;;2.13;;
78875;SDS011;68253;52.506;5.486;2023-07-28T10:30:28;9.55;;;2.83;;
78875;SDS011;68253;52.506;5.486;2023-07-28T10:32:54;7.68;;;2.40;;
78875;SDS011;68253;52.506;5.486;2023-07-28T10:35:27;8.77;;;2.45;;
78875;SDS011;68253;52.506;5.486;2023-07-28T10:37:54;9.27;;;2.70;;
78875;SDS011;68253;52.506;5.486;2023-07-28T10:42:52;8.50;;;2.60;;
78875;SDS011;68253;52.506;5.486;2023-07-28T10:45:19;8.90;;;2.70;;
78875;SDS011;68253;52.506;5.486;2023-07-28T10:47:48;10.65;;;2.90;;
78875;SDS011;68253;52.506;5.486;2023-07-28T10:50:15;6.13;;;2.10;;
78875;SDS011;68253;52.506;5.486;2023-07-28T10:52:41;11.30;;;3.03;;
78875;SDS011;68253;52.506;5.486;2023-07-28T10:55:15;8.10;;;2.65;;
78875;SDS011;68253;52.506;5.486;2023-07-28T10:57:47;7.30;;;2.15;;
78875;SDS011;68253;52.506;5.486;2023-07-28T11:00:15;6.28;;;1.83;;
78875;SDS011;68253;52.506;5.486;2023-07-28T11:05:21;8.25;;;3.30;;
78875;SDS011;68253;52.506;5.486;2023-07-28T11:07:54;10.20;;;3.03;;
78875;SDS011;68253;52.506;5.486;2023-07-28T11:10:21;8.40;;;2.50;;
78875;SDS011;68253;52.506;5.486;2023-07-28T11:12:49;8.70;;;2.67;;
78875;SDS011;68253;52.506;5.486;2023-07-28T11:15:17;11.70;;;3.13;;
78875;SDS011;68253;52.506;5.486;2023-07-28T11:17:45;9.45;;;2.88;;
78875;SDS011;68253;52.506;5.486;2023-07-28T11:22:53;8.98;;;2.90;;
78875;SDS011;68253;52.506;5.486;2023-07-28T11:25:20;8.82;;;2.58;;
78875;SDS011;68253;52.506;5.486;2023-07-28T11:27:47;8.38;;;3.30;;
78875;SDS011;68253;52.506;5.486;2023-07-28T11:30:15;9.10;;;2.88;;
78875;SDS011;68253;52.506;5.486;2023-07-28T11:32:44;9.32;;;2.45;;
78875;SDS011;68253;52.506;5.486;2023-07-28T11:37:38;10.95;;;4.05;;
78875;SDS011;68253;52.506;5.486;2023-07-28T11:40:08;8.70;;;2.60;;
78875;SDS011;68253;52.506;5.486;2023-07-28T11:42:38;8.75;;;2.58;;
78875;SDS011;68253;52.506;5.486;2023-07-28T11:45:25;9.63;;;3.53;;
78875;SDS011;68253;52.506;5.486;2023-07-28T11:48:04;11.07;;;2.88;;
78875;SDS011;68253;52.506;5.486;2023-07-28T11:50:35;8.10;;;2.75;;
78875;SDS011;68253;52.506;5.486;2023-07-28T11:53:07;8.32;;;3.28;;
78875;SDS011;68253;52.506;5.486;2023-07-28T11:55:35;10.20;;;3.70;;
78875;SDS011;68253;52.506;5.486;2023-07-28T11:58:02;10.40;;;3.25;;
78875;SDS011;68253;52.506;5.486;2023-07-28T12:00:31;9.23;;;2.65;;
78875;SDS011;68253;52.506;5.486;2023-07-28T12:03:08;10.85;;;2.90;;
78875;SDS011;68253;52.506;5.486;2023-07-28T12:05:38;9.65;;;3.05;;
78875;SDS011;68253;52.506;5.486;2023-07-28T12:08:05;10.40;;;3.35;;
78875;SDS011;68253;52.506;5.486;2023-07-28T12:10:34;7.43;;;2.10;;
78875;SDS011;68253;52.506;5.486;2023-07-28T12:13:04;8.35;;;2.80;;
78875;SDS011;68253;52.506;5.486;2023-07-28T12:15:32;8.30;;;2.70;;
78875;SDS011;68253;52.506;5.486;2023-07-28T12:20:41;9.90;;;3.17;;
78875;SDS011;68253;52.506;5.486;2023-07-28T12:23:12;7.55;;;2.38;;
78875;SDS011;68253;52.506;5.486;2023-07-28T12:25:41;7.18;;;2.40;;
78875;SDS011;68253;52.506;5.486;2023-07-28T12:28:07;9.55;;;2.80;;
78875;SDS011;68253;52.506;5.486;2023-07-28T12:30:34;7.88;;;2.85;;
78875;SDS011;68253;52.506;5.486;2023-07-28T12:33:00;7.53;;;2.40;;
78875;SDS011;68253;52.506;5.486;2023-07-28T12:35:27;8.98;;;3.50;;
78875;SDS011;68253;52.506;5.486;2023-07-28T12:37:57;8.40;;;3.45;;
78875;SDS011;68253;52.506;5.486;2023-07-28T12:40:26;8.57;;;2.70;;
78875;SDS011;68253;52.506;5.486;2023-07-28T12:42:53;8.35;;;3.08;;
78875;SDS011;68253;52.506;5.486;2023-07-28T12:45:20;8.73;;;3.00;;
78875;SDS011;68253;52.506;5.486;2023-07-28T12:47:46;8.27;;;2.88;;
78875;SDS011;68253;52.506;5.486;2023-07-28T12:50:13;9.02;;;3.28;;
78875;SDS011;68253;52.506;5.486;2023-07-28T12:52:39;8.05;;;2.90;;
78875;SDS011;68253;52.506;5.486;2023-07-28T12:55:06;8.57;;;2.90;;
78875;SDS011;68253;52.506;5.486;2023-07-28T12:57:32;9.07;;;2.78;;
78875;SDS011;68253;52.506;5.486;2023-07-28T12:59:58;11.05;;;3.25;;
78875;SDS011;68253;52.506;5.486;2023-07-28T13:02:24;8.63;;;2.20;;
78875;SDS011;68253;52.506;5.486;2023-07-28T13:04:51;9.23;;;2.78;;
78875;SDS011;68253;52.506;5.486;2023-07-28T13:07:17;7.97;;;3.00;;
78875;SDS011;68253;52.506;5.486;2023-07-28T13:09:44;11.00;;;3.13;;
78875;SDS011;68253;52.506;5.486;2023-07-28T13:12:11;8.90;;;2.70;;
78875;SDS011;68253;52.506;5.486;2023-07-28T13:14:37;7.95;;;2.25;;
78875;SDS011;68253;52.506;5.486;2023-07-28T13:17:03;8.15;;;2.40;;
78875;SDS011;68253;52.506;5.486;2023-07-28T13:19:29;9.77;;;3.08;;
78875;SDS011;68253;52.506;5.486;2023-07-28T13:21:55;8.38;;;2.63;;
78875;SDS011;68253;52.506;5.486;2023-07-28T13:24:22;6.28;;;2.20;;
78875;SDS011;68253;52.506;5.486;2023-07-28T13:26:48;8.82;;;2.80;;
78875;SDS011;68253;52.506;5.486;2023-07-28T13:29:14;6.85;;;2.20;;
78875;SDS011;68253;52.506;5.486;2023-07-28T13:31:40;7.93;;;2.55;;
78875;SDS011;68253;52.506;5.486;2023-07-28T13:34:06;8.13;;;2.45;;
78875;SDS011;68253;52.506;5.486;2023-07-28T13:36:32;10.18;;;3.00;;
78875;SDS011;68253;52.506;5.486;2023-07-28T13:38:59;8.80;;;2.50;;
78875;SDS011;68253;52.506;5.486;2023-07-28T13:41:25;9.00;;;2.70;;
78875;SDS011;68253;52.506;5.486;2023-07-28T13:43:51;10.20;;;2.88;;
78875;SDS011;68253;52.506;5.486;2023-07-28T13:46:17;8.18;;;2.85;;
78875;SDS011;68253;52.506;5.486;2023-07-28T13:48:43;9.15;;;2.50;;
78875;SDS011;68253;52.506;5.486;2023-07-28T13:51:09;8.10;;;2.17;;
78875;SDS011;68253;52.506;5.486;2023-07-28T13:53:35;9.52;;;2.40;;
78875;SDS011;68253;52.506;5.486;2023-07-28T13:56:01;7.85;;;2.42;;
78875;SDS011;68253;52.506;5.486;2023-07-28T13:58:28;8.57;;;2.50;;
78875;SDS011;68253;52.506;5.486;2023-07-28T14:00:54;6.82;;;2.38;;
78875;SDS011;68253;52.506;5.486;2023-07-28T14:03:20;7.72;;;2.50;;
78875;SDS011;68253;52.506;5.486;2023-07-28T14:05:46;8.35;;;2.53;;
78875;SDS011;68253;52.506;5.486;2023-07-28T14:08:13;6.68;;;2.15;;
78875;SDS011;68253;52.506;5.486;2023-07-28T14:10:43;7.50;;;2.65;;
78875;SDS011;68253;52.506;5.486;2023-07-28T14:13:10;7.78;;;2.50;;
78875;SDS011;68253;52.506;5.486;2023-07-28T14:15:37;7.22;;;2.20;;
78875;SDS011;68253;52.506;5.486;2023-07-28T14:18:03;7.07;;;2.25;;
78875;SDS011;68253;52.506;5.486;2023-07-28T14:20:29;7.65;;;2.08;;
78875;SDS011;68253;52.506;5.486;2023-07-28T14:22:55;10.93;;;3.20;;
78875;SDS011;68253;52.506;5.486;2023-07-28T14:25:21;6.50;;;2.00;;
78875;SDS011;68253;52.506;5.486;2023-07-28T14:27:47;7.45;;;2.33;;
78875;SDS011;68253;52.506;5.486;2023-07-28T14:30:13;9.23;;;2.60;;
78875;SDS011;68253;52.506;5.486;2023-07-28T14:32:39;6.00;;;2.00;;
78875;SDS011;68253;52.506;5.486;2023-07-28T14:35:06;8.52;;;2.50;;
78875;SDS011;68253;52.506;5.486;2023-07-28T14:37:32;6.70;;;2.30;;
78875;SDS011;68253;52.506;5.486;2023-07-28T14:39:58;9.48;;;2.50;;
78875;SDS011;68253;52.506;5.486;2023-07-28T14:42:24;9.07;;;2.38;;
78875;SDS011;68253;52.506;5.486;2023-07-28T14:44:50;7.10;;;2.10;;
78875;SDS011;68253;52.506;5.486;2023-07-28T14:47:16;6.82;;;2.35;;
78875;SDS011;68253;52.506;5.486;2023-07-28T14:49:43;5.90;;;1.73;;
78875;SDS011;68253;52.506;5.486;2023-07-28T14:52:09;5.78;;;1.80;;
78875;SDS011;68253;52.506;5.486;2023-07-28T14:54:35;6.45;;;2.05;;
78875;SDS011;68253;52.506;5.486;2023-07-28T14:57:01;8.05;;;2.42;;
78875;SDS011;68253;52.506;5.486;2023-07-28T14:59:27;6.70;;;2.05;;
78875;SDS011;68253;52.506;5.486;2023-07-28T15:01:53;7.45;;;2.40;;